首页
METAR-TAF:

METAR-TAF

机场 :

Lancaster Airport

兰开斯特, 宾夕法尼亚州, 美国

纬度: 40-07-13N, 经度: 076-17-40W, 海拔: 123米

当前天气观测

该预报发布于59分钟前的06:53 UTC
风速3节,风向西南
温度 12°C
湿度 82%
气压 1007 hPa
能見度: 16.1公里
阴天层高于1000英尺

METAR: KLNS 100653Z AUTO 22003KT 10SM OVC010 12/09 A2974 RMK AO2 SLP072 T01170094

时间: 02:52 (07:52 UTC)

预报

该预报发布于1小时和52分钟前的06:00 UTC
预报有效从10日的 06点(UTC)到 11日的 06点(UTC)
风速5节,风向南转西南
能見度: 10公里
阴天层高于1100英尺
从 10日的 0700点(UTC)
风速8节,风向南转西南
能見度: 10公里
散云层高于2500英尺
阴天层高于20000英尺
从 10日的 1200点(UTC)
风速4节,风向西南
能見度: 10公里
阴天层高于3500英尺
附近有阵雨
从 10日的 1600点(UTC)
风速6节,风向西转西南
能見度: 8.0公里
阴天层高于2500英尺
小雨
从 10日的 2000点(UTC)
风速10节,风向西转西北
能見度: 10公里
多云层高于3500英尺
阴天层高于9000英尺

TAF: KLNS 100600Z 1006/1106 21005KT P6SM OVC011 WS015/24040KT FM100700 21008KT P6SM SCT025 OVC200 WS015/24040KT FM101200 23004KT P6SM VCSH OVC035 FM101600 24006KT 5SM -RA OVC025 FM102000 29010KT P6SM BKN035 OVC090

超过4000个机场的气象观测和天气预报(METAR&TAF报告)。

可查询的气象台以黄色和红色小点在地图上表示。

将鼠标移到小点上方,可查看气象台名称。

然后点击查看天气观测和预报。

如需切换地图:点击带黑十字的绿色按钮放大地图;点击带横线的绿色按钮缩小地图;或者点击绿色箭头查看邻近地区的地图。


METAR-TAF: